Metar Aviation Weather Data LEMG

22°C Temp
18°C Dewpoint
% Humidity
Temperature
0 KM/H
MPH
KTS
Calm
Due North

Wind Speed
Partly Cloudy
Conditions
Pressure 1016.92 (hPa) - 30.03 (in)
Visibility 6.2 (mi) - 10 (km)

Current Conditions
LEMG
Metar :LEMG 050100Z 00000KT 9999 FEW035 22/18 Q1017 NOSIG
Fri 5th July 03:00 am

  Metar Aviation API Data Provided by https://www.checkwx.com/ PHP scripts by weather34.com ©2019